createdAt,value
2023-06-21T00:01:12.492Z,21.09
2023-06-21T00:04:25.742Z,21.05
2023-06-21T00:07:54.524Z,20.92
2023-06-21T00:10:26.047Z,20.77
2023-06-21T00:12:57.328Z,20.77
2023-06-21T00:15:30.821Z,20.78
2023-06-21T00:18:01.512Z,20.82
2023-06-21T00:20:32.358Z,20.69
2023-06-21T00:23:02.941Z,20.74
2023-06-21T00:25:34.212Z,20.77
2023-06-21T00:28:05.548Z,20.63
2023-06-21T00:30:38.812Z,20.60
2023-06-21T00:33:09.370Z,20.61
2023-06-21T00:35:39.922Z,20.61
2023-06-21T00:38:13.822Z,20.63
2023-06-21T00:40:44.648Z,20.60
2023-06-21T00:43:17.111Z,20.66
2023-06-21T00:45:51.238Z,20.57
2023-06-21T00:48:21.875Z,20.49
2023-06-21T00:50:52.526Z,20.54
2023-06-21T00:53:23.148Z,20.53
2023-06-21T00:55:57.143Z,20.47
2023-06-21T00:58:28.098Z,20.38
2023-06-21T01:01:01.800Z,20.28
2023-06-21T01:03:32.784Z,20.31
2023-06-21T01:06:13.426Z,20.23
2023-06-21T01:08:53.899Z,20.20
2023-06-21T01:11:30.084Z,20.08
2023-06-21T01:14:12.057Z,20.10
2023-06-21T01:16:50.099Z,20.13
2023-06-21T01:19:32.830Z,20.15
2023-06-21T01:22:12.359Z,20.03
2023-06-21T01:24:58.366Z,20.00
2023-06-21T01:27:42.416Z,19.98
2023-06-21T01:30:16.478Z,19.96
2023-06-21T01:32:47.573Z,19.86
2023-06-21T01:35:18.387Z,19.86
2023-06-21T01:37:48.976Z,19.77
2023-06-21T01:40:21.137Z,19.85
2023-06-21T01:42:51.769Z,19.82
2023-06-21T01:45:26.207Z,19.81
2023-06-21T01:47:58.162Z,19.75
2023-06-21T01:50:30.389Z,19.73
2023-06-21T01:53:01.435Z,19.76
2023-06-21T01:55:33.762Z,19.71
2023-06-21T01:58:05.389Z,19.62
2023-06-21T02:00:38.593Z,19.72
2023-06-21T02:03:13.747Z,19.65
2023-06-21T02:05:46.626Z,19.61
2023-06-21T02:08:19.918Z,19.63
2023-06-21T02:10:51.296Z,19.60
2023-06-21T02:13:22.842Z,19.61
2023-06-21T02:15:56.224Z,19.55
2023-06-21T02:18:27.141Z,19.56
2023-06-21T02:21:07.330Z,19.54
2023-06-21T02:23:39.094Z,19.42
2023-06-21T02:26:10.602Z,19.21
2023-06-21T02:28:45.890Z,19.16
2023-06-21T02:31:19.225Z,19.09
2023-06-21T02:33:50.617Z,19.11
2023-06-21T02:36:21.471Z,19.20
2023-06-21T02:38:52.066Z,19.22
2023-06-21T02:41:22.946Z,19.13
2023-06-21T02:43:53.587Z,19.03
2023-06-21T02:46:26.938Z,18.99
2023-06-21T02:48:57.606Z,19.02
2023-06-21T02:51:28.122Z,19.08
2023-06-21T02:53:58.905Z,19.05
2023-06-21T02:56:31.664Z,18.90
2023-06-21T02:59:02.208Z,18.89
2023-06-21T03:01:35.321Z,18.89
2023-06-21T03:04:05.980Z,18.93
2023-06-21T03:06:36.712Z,18.91
2023-06-21T03:09:07.560Z,18.92
2023-06-21T03:11:38.395Z,18.87
2023-06-21T03:14:09.100Z,18.90
2023-06-21T03:16:44.738Z,18.90
2023-06-21T03:19:15.703Z,19.03
2023-06-21T03:21:47.475Z,19.24
2023-06-21T03:24:19.009Z,19.40
2023-06-21T03:26:51.042Z,19.49
2023-06-21T03:29:22.233Z,19.56
2023-06-21T03:31:56.111Z,19.73
2023-06-21T03:34:27.141Z,19.63
2023-06-21T03:36:57.725Z,19.80
2023-06-21T03:39:30.308Z,19.86
2023-06-21T03:42:00.892Z,19.68
2023-06-21T03:44:31.817Z,19.79
2023-06-21T03:47:05.791Z,19.95
2023-06-21T03:49:37.433Z,20.09
2023-06-21T03:52:08.935Z,20.26
2023-06-21T03:54:39.531Z,20.24
2023-06-21T03:57:10.321Z,20.22
2023-06-21T03:59:40.923Z,20.09
2023-06-21T04:02:14.103Z,20.07
2023-06-21T04:04:44.754Z,20.16
2023-06-21T04:07:21.026Z,20.31
2023-06-21T04:09:52.932Z,20.34
2023-06-21T04:12:23.530Z,20.04
2023-06-21T04:14:54.030Z,20.25
2023-06-21T04:17:27.398Z,20.43
2023-06-21T04:19:59.344Z,20.68
2023-06-21T04:22:31.000Z,20.81
2023-06-21T04:25:02.323Z,21.03
2023-06-21T04:27:34.275Z,20.77
2023-06-21T04:30:04.873Z,20.74
2023-06-21T04:32:46.169Z,20.80
2023-06-21T04:35:18.162Z,21.00
2023-06-21T04:37:51.256Z,21.15
2023-06-21T04:40:24.844Z,21.42
2023-06-21T04:42:59.837Z,21.52
2023-06-21T04:45:30.699Z,21.70
2023-06-21T04:48:06.901Z,21.82
2023-06-21T04:50:38.065Z,22.06
2023-06-21T04:53:08.735Z,22.29
2023-06-21T04:55:43.864Z,22.41
2023-06-21T04:58:14.751Z,22.49
2023-06-21T05:00:45.296Z,22.69
2023-06-21T05:03:18.590Z,23.04
2023-06-21T05:05:49.196Z,23.42
2023-06-21T05:08:19.755Z,23.74
2023-06-21T05:10:50.501Z,23.99
2023-06-21T05:13:21.358Z,24.22
2023-06-21T05:15:51.964Z,24.17
2023-06-21T05:18:25.098Z,23.67
2023-06-21T05:20:56.665Z,23.64
2023-06-21T05:23:27.420Z,23.66
2023-06-21T05:25:57.930Z,23.70
2023-06-21T05:28:28.434Z,23.76
2023-06-21T05:30:59.087Z,23.75
2023-06-21T05:33:32.185Z,23.58
2023-06-21T05:36:03.450Z,23.67
2023-06-21T05:38:34.007Z,23.41
2023-06-21T05:41:04.801Z,23.37
2023-06-21T05:43:35.380Z,23.55
2023-06-21T05:46:06.009Z,23.76
2023-06-21T05:48:39.125Z,23.98
2023-06-21T05:51:09.691Z,24.04
2023-06-21T05:53:40.253Z,23.99
2023-06-21T05:56:10.820Z,24.11
2023-06-21T05:58:41.345Z,24.37
2023-06-21T06:01:23.660Z,24.59
2023-06-21T06:03:58.184Z,24.58
2023-06-21T06:06:40.389Z,24.84
2023-06-21T06:09:11.572Z,24.81
2023-06-21T06:11:42.374Z,25.09
2023-06-21T06:14:14.386Z,25.42
2023-06-21T06:16:44.898Z,25.30
2023-06-21T06:19:18.047Z,25.43
2023-06-21T06:21:49.177Z,25.81
2023-06-21T06:24:19.813Z,26.02
2023-06-21T06:26:50.387Z,26.34
2023-06-21T06:29:20.887Z,27.51
2023-06-21T06:31:53.823Z,28.34
2023-06-21T06:34:28.164Z,28.71
2023-06-21T06:37:12.243Z,28.79
2023-06-21T06:39:44.824Z,28.99
2023-06-21T06:42:15.495Z,29.62
2023-06-21T06:44:46.054Z,30.31
2023-06-21T06:47:16.991Z,30.84
2023-06-21T06:49:50.115Z,31.13
2023-06-21T06:52:20.698Z,30.62
2023-06-21T06:54:51.239Z,30.58
2023-06-21T06:57:30.671Z,30.58
2023-06-21T07:00:08.076Z,30.79
2023-06-21T07:02:38.660Z,31.14
2023-06-21T07:05:12.622Z,31.43
2023-06-21T07:07:43.210Z,31.39
2023-06-21T07:10:14.425Z,31.35
2023-06-21T07:12:44.981Z,30.80
2023-06-21T07:15:15.561Z,30.16
2023-06-21T07:17:46.131Z,30.23
2023-06-21T07:20:19.506Z,31.13
2023-06-21T07:22:50.085Z,31.99
2023-06-21T07:25:20.834Z,32.56
2023-06-21T07:27:51.463Z,33.12
2023-06-21T07:30:24.123Z,33.36
2023-06-21T07:32:55.118Z,33.53
2023-06-21T07:35:28.677Z,34.35
2023-06-21T07:37:59.308Z,34.22
2023-06-21T07:40:30.170Z,34.01
2023-06-21T07:43:00.850Z,33.90
2023-06-21T07:45:31.678Z,33.95
2023-06-21T07:48:02.337Z,33.85
2023-06-21T07:50:35.554Z,32.78
2023-06-21T07:53:06.109Z,32.58
2023-06-21T07:55:36.698Z,33.05
2023-06-21T07:58:07.655Z,33.58
2023-06-21T08:00:38.185Z,33.09
2023-06-21T08:03:08.835Z,33.67
2023-06-21T08:05:41.989Z,33.96
2023-06-21T08:08:13.425Z,33.06
2023-06-21T08:10:44.087Z,33.11
2023-06-21T08:13:18.485Z,32.09
2023-06-21T08:15:49.434Z,31.88
2023-06-21T08:18:20.116Z,31.67
2023-06-21T08:20:53.246Z,31.71
2023-06-21T08:23:23.786Z,31.64
2023-06-21T08:25:54.350Z,30.36
2023-06-21T08:28:25.140Z,29.51
2023-06-21T08:30:55.705Z,29.47
2023-06-21T08:33:26.231Z,28.52
2023-06-21T08:35:59.388Z,27.75
2023-06-21T08:38:30.071Z,26.72
2023-06-21T08:41:06.248Z,26.36
2023-06-21T08:43:37.067Z,25.79
2023-06-21T08:46:10.697Z,25.62
2023-06-21T08:48:42.411Z,25.52
2023-06-21T08:51:15.783Z,25.40
2023-06-21T08:53:50.186Z,25.38
2023-06-21T08:56:25.327Z,25.13
2023-06-21T08:59:03.425Z,24.34
2023-06-21T09:01:41.330Z,23.12
2023-06-21T09:04:16.382Z,22.53
2023-06-21T09:06:49.929Z,21.95
2023-06-21T09:09:21.234Z,21.64
2023-06-21T09:11:51.804Z,21.50
2023-06-21T09:14:24.124Z,21.22
2023-06-21T09:16:57.787Z,21.04
2023-06-21T09:19:29.559Z,20.79
2023-06-21T09:22:03.201Z,20.61
2023-06-21T09:24:33.806Z,20.63
2023-06-21T09:27:04.562Z,20.71
2023-06-21T09:29:36.169Z,20.70
2023-06-21T09:32:07.917Z,20.72
2023-06-21T09:34:38.921Z,20.64
2023-06-21T09:37:12.274Z,20.65
2023-06-21T09:39:42.962Z,20.58
2023-06-21T09:42:14.548Z,20.53
2023-06-21T09:44:46.801Z,20.49
2023-06-21T09:47:18.304Z,20.52
2023-06-21T09:49:50.516Z,20.45
2023-06-21T09:52:27.664Z,20.34
2023-06-21T09:55:01.397Z,20.23
2023-06-21T09:57:32.561Z,20.21
2023-06-21T10:00:06.893Z,20.19
2023-06-21T10:02:43.760Z,20.17
2023-06-21T10:05:21.109Z,20.16
2023-06-21T10:07:54.480Z,20.20
2023-06-21T10:10:26.938Z,20.17
2023-06-21T10:12:58.923Z,20.18
2023-06-21T10:15:29.615Z,20.13
2023-06-21T10:18:06.044Z,20.14
2023-06-21T10:20:38.988Z,20.14
2023-06-21T10:23:17.562Z,20.16
2023-06-21T10:25:51.190Z,20.12
2023-06-21T10:28:24.091Z,20.20
2023-06-21T10:30:58.295Z,20.11
2023-06-21T10:33:31.996Z,20.06
2023-06-21T10:36:05.673Z,20.19
2023-06-21T10:38:46.277Z,20.31
2023-06-21T10:41:18.324Z,20.55
2023-06-21T10:43:49.007Z,20.83
2023-06-21T10:46:19.948Z,20.97
2023-06-21T10:48:52.002Z,21.00
2023-06-21T10:51:23.279Z,21.12
2023-06-21T10:53:57.138Z,21.50
2023-06-21T10:56:29.348Z,21.66
2023-06-21T10:58:59.930Z,21.71
2023-06-21T11:01:31.098Z,21.90
2023-06-21T11:04:01.868Z,22.15
2023-06-21T11:06:40.241Z,22.88
2023-06-21T11:09:17.699Z,23.75
2023-06-21T11:11:54.261Z,24.53
2023-06-21T11:14:26.253Z,24.80
2023-06-21T11:17:13.649Z,25.07
2023-06-21T11:19:46.680Z,26.21
2023-06-21T11:22:20.906Z,27.22
2023-06-21T11:25:02.066Z,28.19
2023-06-21T11:27:33.153Z,29.15
2023-06-21T11:30:11.464Z,30.12
2023-06-21T11:32:57.388Z,30.53
2023-06-21T11:35:41.053Z,31.13
2023-06-21T11:38:11.686Z,31.75
2023-06-21T11:40:45.143Z,31.94
2023-06-21T11:43:22.188Z,32.09
2023-06-21T11:46:01.876Z,31.93
2023-06-21T11:48:34.064Z,31.28
2023-06-21T11:51:13.445Z,30.89
2023-06-21T11:53:45.793Z,31.59
2023-06-21T11:56:20.741Z,31.25
2023-06-21T11:58:51.894Z,31.32
2023-06-21T12:01:22.564Z,31.01
2023-06-21T12:03:59.518Z,31.15
2023-06-21T12:06:30.611Z,31.33
2023-06-21T12:09:02.290Z,32.93
2023-06-21T12:11:35.498Z,33.63
2023-06-21T12:14:07.548Z,33.28
2023-06-21T12:16:38.183Z,32.10
2023-06-21T12:19:12.198Z,31.62
2023-06-21T12:21:43.747Z,32.90
2023-06-21T12:24:14.368Z,33.60
2023-06-21T12:26:56.318Z,33.95
2023-06-21T12:29:28.545Z,34.56
2023-06-21T12:32:00.650Z,33.69
2023-06-21T12:34:31.426Z,33.36
2023-06-21T12:37:02.035Z,31.70
2023-06-21T12:39:32.792Z,31.79
2023-06-21T12:42:10.377Z,31.83
2023-06-21T12:44:41.824Z,31.14
2023-06-21T12:47:13.385Z,30.74
2023-06-21T12:49:49.184Z,31.90
2023-06-21T12:52:28.024Z,33.90
2023-06-21T12:54:59.862Z,34.72
2023-06-21T12:57:37.563Z,35.90
2023-06-21T13:00:11.117Z,37.42
2023-06-21T13:02:42.145Z,37.28
2023-06-21T13:05:13.385Z,36.98
2023-06-21T13:07:44.115Z,36.22
2023-06-21T13:10:15.123Z,35.33
2023-06-21T13:12:48.259Z,35.11
2023-06-21T13:15:18.976Z,34.42
2023-06-21T13:17:49.623Z,33.67
2023-06-21T13:20:20.770Z,32.46
2023-06-21T13:22:51.408Z,31.70
2023-06-21T13:25:22.289Z,32.74
2023-06-21T13:27:55.780Z,34.01
2023-06-21T13:30:26.781Z,34.51
2023-06-21T13:32:57.612Z,35.56
2023-06-21T13:35:28.649Z,37.12
2023-06-21T13:37:59.207Z,38.46
2023-06-21T13:40:30.154Z,39.34
2023-06-21T13:43:03.743Z,39.79
2023-06-21T13:45:34.360Z,40.08
2023-06-21T13:48:05.451Z,41.19
2023-06-21T13:50:36.251Z,40.95
2023-06-21T13:53:07.006Z,40.19
2023-06-21T13:55:37.588Z,39.04
2023-06-21T13:58:10.769Z,36.95
2023-06-21T14:00:41.367Z,36.58
2023-06-21T14:03:12.268Z,35.56
2023-06-21T14:05:43.077Z,34.46
2023-06-21T14:08:13.731Z,33.66
2023-06-21T14:10:45.917Z,33.39
2023-06-21T14:13:22.570Z,33.44
2023-06-21T14:15:53.693Z,33.16
2023-06-21T14:18:41.681Z,33.89
2023-06-21T14:21:15.767Z,33.66
2023-06-21T14:23:46.864Z,32.84
2023-06-21T14:26:17.476Z,31.12
2023-06-21T14:28:50.921Z,31.71
2023-06-21T14:31:21.611Z,33.31
2023-06-21T14:33:55.437Z,35.27
2023-06-21T14:36:26.181Z,37.03
2023-06-21T14:38:56.824Z,38.22
2023-06-21T14:41:27.703Z,38.12
2023-06-21T14:44:00.890Z,38.49
2023-06-21T14:46:31.633Z,38.64
2023-06-21T14:49:02.412Z,38.94
2023-06-21T14:51:34.682Z,38.70
2023-06-21T14:54:08.113Z,39.26
2023-06-21T14:56:38.756Z,39.40
2023-06-21T14:59:11.931Z,38.65
2023-06-21T15:01:42.530Z,38.85
2023-06-21T15:04:13.110Z,39.16
2023-06-21T15:06:44.266Z,39.40
2023-06-21T15:09:15.362Z,39.56
2023-06-21T15:11:45.985Z,39.93
2023-06-21T15:14:19.255Z,40.59
2023-06-21T15:16:50.838Z,38.70
2023-06-21T15:19:22.110Z,37.08
2023-06-21T15:21:52.707Z,38.26
2023-06-21T15:24:23.296Z,39.16
2023-06-21T15:26:53.828Z,38.69
2023-06-21T15:29:27.114Z,38.15
2023-06-21T15:31:57.718Z,36.52
2023-06-21T15:34:28.379Z,36.71
2023-06-21T15:36:58.898Z,36.77
2023-06-21T15:39:31.058Z,38.69
2023-06-21T15:42:01.602Z,39.94
2023-06-21T15:44:34.770Z,40.94
2023-06-21T15:47:05.401Z,40.77
2023-06-21T15:49:36.220Z,39.79
2023-06-21T15:52:07.001Z,37.72
2023-06-21T15:54:37.659Z,35.89
2023-06-21T15:57:09.227Z,35.12
2023-06-21T15:59:42.663Z,34.40
2023-06-21T16:02:14.357Z,35.40
2023-06-21T16:04:45.022Z,35.39
2023-06-21T16:07:15.618Z,36.75
2023-06-21T16:09:46.173Z,38.03
2023-06-21T16:12:16.745Z,38.55
2023-06-21T16:14:49.912Z,38.60
2023-06-21T16:17:20.976Z,38.05
2023-06-21T16:19:51.647Z,38.79
2023-06-21T16:22:22.323Z,39.51
2023-06-21T16:24:52.914Z,40.03
2023-06-21T16:27:23.968Z,40.14
2023-06-21T16:29:58.157Z,39.06
2023-06-21T16:32:28.773Z,38.32
2023-06-21T16:34:59.425Z,37.90
2023-06-21T16:37:30.003Z,38.17
2023-06-21T16:40:00.672Z,38.57
2023-06-21T16:42:31.405Z,38.20
2023-06-21T16:45:04.789Z,36.92
2023-06-21T16:47:35.409Z,34.91
2023-06-21T16:50:06.257Z,34.04
2023-06-21T16:52:36.877Z,33.29
2023-06-21T16:55:08.234Z,32.47
2023-06-21T16:57:38.839Z,31.16
2023-06-21T17:00:14.239Z,30.79
2023-06-21T17:02:44.930Z,30.67
2023-06-21T17:05:15.765Z,31.04
2023-06-21T17:07:46.442Z,31.79
2023-06-21T17:10:17.103Z,32.37
2023-06-21T17:12:47.724Z,32.55
2023-06-21T17:15:20.945Z,34.35
2023-06-21T17:17:51.646Z,35.35
2023-06-21T17:20:22.420Z,35.00
2023-06-21T17:22:52.966Z,34.91
2023-06-21T17:25:23.603Z,35.34
2023-06-21T17:27:54.185Z,34.64
2023-06-21T17:30:27.360Z,31.88
2023-06-21T17:32:58.106Z,31.73
2023-06-21T17:35:28.917Z,31.85
2023-06-21T17:37:59.651Z,31.54
2023-06-21T17:40:30.208Z,31.15
2023-06-21T17:43:00.875Z,32.34
2023-06-21T17:45:34.484Z,32.14
2023-06-21T17:48:05.179Z,32.81
2023-06-21T17:50:35.842Z,33.14
2023-06-21T17:53:06.424Z,33.14
2023-06-21T17:55:37.133Z,33.39
2023-06-21T17:58:07.751Z,32.65
2023-06-21T18:00:41.013Z,32.32
2023-06-21T18:03:11.797Z,32.00
2023-06-21T18:05:42.515Z,32.32
2023-06-21T18:08:13.097Z,32.36
2023-06-21T18:10:43.670Z,32.15
2023-06-21T18:13:14.274Z,32.40
2023-06-21T18:15:47.485Z,31.65
2023-06-21T18:18:18.198Z,32.09
2023-06-21T18:20:49.728Z,31.96
2023-06-21T18:23:20.589Z,31.77
2023-06-21T18:25:51.396Z,31.22
2023-06-21T18:28:22.146Z,31.75
2023-06-21T18:30:56.278Z,31.62
2023-06-21T18:33:26.924Z,31.15
2023-06-21T18:35:57.701Z,30.05
2023-06-21T18:38:29.158Z,29.26
2023-06-21T18:40:59.881Z,28.85
2023-06-21T18:43:30.482Z,27.69
2023-06-21T18:46:03.662Z,27.59
2023-06-21T18:48:34.284Z,27.34
2023-06-21T18:51:04.792Z,27.16
2023-06-21T18:53:35.403Z,26.95
2023-06-21T18:56:05.916Z,26.77
2023-06-21T18:58:38.742Z,26.60
2023-06-21T19:01:11.910Z,26.26
2023-06-21T19:03:42.623Z,26.01
2023-06-21T19:06:13.249Z,25.76
2023-06-21T19:08:43.880Z,25.59
2023-06-21T19:11:14.461Z,25.33
2023-06-21T19:13:45.720Z,25.08
2023-06-21T19:16:22.614Z,25.04
2023-06-21T19:18:54.614Z,24.92
2023-06-21T19:21:25.331Z,24.79
2023-06-21T19:23:55.864Z,24.63
2023-06-21T19:26:26.454Z,24.47
2023-06-21T19:28:57.636Z,24.23
2023-06-21T19:31:30.874Z,24.07
2023-06-21T19:34:01.490Z,23.94
2023-06-21T19:36:32.038Z,23.81
2023-06-21T19:39:02.603Z,23.74
2023-06-21T19:41:33.161Z,23.61
2023-06-21T19:44:04.046Z,23.40
2023-06-21T19:46:40.608Z,23.36
2023-06-21T19:49:11.685Z,23.27
2023-06-21T19:51:42.207Z,23.22
2023-06-21T19:54:21.728Z,23.16
2023-06-21T19:56:53.405Z,23.15
2023-06-21T19:59:24.400Z,23.04
2023-06-21T20:01:57.578Z,23.09
2023-06-21T20:04:28.193Z,23.16
2023-06-21T20:06:58.761Z,23.10
2023-06-21T20:09:29.310Z,23.14
2023-06-21T20:12:00.203Z,23.16
2023-06-21T20:14:30.719Z,23.21
2023-06-21T20:17:03.796Z,23.19
2023-06-21T20:19:36.524Z,23.19
2023-06-21T20:22:07.932Z,23.21
2023-06-21T20:24:38.571Z,23.21
2023-06-21T20:27:10.185Z,23.21
2023-06-21T20:29:40.758Z,23.26
2023-06-21T20:32:14.563Z,23.16
2023-06-21T20:34:45.792Z,23.16
2023-06-21T20:37:16.343Z,23.22
2023-06-21T20:39:48.262Z,23.12
2023-06-21T20:42:18.848Z,23.10
2023-06-21T20:44:49.404Z,23.08
2023-06-21T20:47:22.488Z,23.08
2023-06-21T20:49:53.025Z,23.01
2023-06-21T20:52:23.813Z,23.03
2023-06-21T20:54:54.609Z,23.02
2023-06-21T20:57:25.178Z,23.07
2023-06-21T20:59:55.912Z,23.08
2023-06-21T21:02:29.725Z,23.09
2023-06-21T21:05:00.275Z,22.98
2023-06-21T21:07:30.838Z,23.03
2023-06-21T21:10:01.509Z,23.09
2023-06-21T21:12:32.010Z,23.06
2023-06-21T21:15:02.572Z,23.10
2023-06-21T21:17:35.860Z,23.04
2023-06-21T21:20:07.592Z,22.97
2023-06-21T21:22:38.367Z,22.96
2023-06-21T21:25:10.078Z,22.92
2023-06-21T21:27:40.747Z,22.91
2023-06-21T21:30:13.058Z,22.76
2023-06-21T21:32:46.292Z,22.68
2023-06-21T21:35:16.908Z,22.72
2023-06-21T21:37:47.434Z,22.77
2023-06-21T21:40:18.153Z,22.73
2023-06-21T21:42:50.344Z,22.69
2023-06-21T21:45:21.015Z,22.58
2023-06-21T21:47:54.225Z,22.50
2023-06-21T21:50:24.965Z,22.36
2023-06-21T21:52:55.606Z,22.30
2023-06-21T21:55:27.657Z,22.33
2023-06-21T21:57:58.313Z,22.23
2023-06-21T22:00:29.907Z,22.21
2023-06-21T22:03:03.361Z,22.24
2023-06-21T22:05:34.237Z,22.18
2023-06-21T22:08:04.728Z,22.08
2023-06-21T22:10:39.128Z,22.02
2023-06-21T22:13:12.559Z,22.03
2023-06-21T22:15:50.631Z,21.96
2023-06-21T22:18:25.833Z,21.92
2023-06-21T22:20:58.327Z,21.98
2023-06-21T22:23:31.389Z,22.02
2023-06-21T22:26:02.869Z,22.05
2023-06-21T22:28:35.478Z,22.12
2023-06-21T22:31:06.444Z,22.07
2023-06-21T22:33:39.711Z,21.99
2023-06-21T22:36:13.483Z,21.92
2023-06-21T22:38:44.006Z,21.83
2023-06-21T22:41:14.510Z,21.81
2023-06-21T22:43:45.057Z,21.74
2023-06-21T22:46:15.644Z,21.71
2023-06-21T22:48:48.766Z,21.68
2023-06-21T22:51:19.405Z,21.63
2023-06-21T22:53:49.925Z,21.59
2023-06-21T22:56:20.616Z,21.55
2023-06-21T22:58:51.154Z,21.50
2023-06-21T23:01:22.962Z,21.50
2023-06-21T23:03:57.297Z,21.49
2023-06-21T23:06:28.516Z,21.43
2023-06-21T23:08:59.105Z,21.47
2023-06-21T23:11:29.768Z,21.45
2023-06-21T23:14:00.317Z,21.45
2023-06-21T23:16:36.603Z,21.41
2023-06-21T23:19:14.237Z,21.45
2023-06-21T23:21:46.155Z,21.38
2023-06-21T23:24:16.753Z,21.37
2023-06-21T23:26:49.843Z,21.35
2023-06-21T23:29:22.346Z,21.34
2023-06-21T23:31:52.982Z,21.29
2023-06-21T23:34:26.202Z,21.24
2023-06-21T23:37:00.130Z,21.16
2023-06-21T23:39:30.657Z,21.11
2023-06-21T23:42:01.463Z,21.10
2023-06-21T23:44:34.865Z,21.01
2023-06-21T23:47:05.377Z,21.14
2023-06-21T23:49:38.514Z,21.08
2023-06-21T23:52:09.702Z,21.01
2023-06-21T23:54:40.315Z,21.03
2023-06-21T23:57:10.944Z,21.04
2023-06-21T23:59:41.510Z,21.00
